Decoded Metar for UNAA (ABAKAN in RUSSIA) (IATA:ABA) | Meteo·Mobile Aviation Weather
aviador You're here:

UNAA Decoded Metar

ABAKAN in RUSSIA
Report Time2019-07-23 02:00:00
UTC Time2019-07-23 02:36:21
Flight Rules mvfr MVFR
Wind360° at 4 kt
W.Decomp.*RWY 02: 3.7 kt HW 1.6 kt LCW
Visibility7000 m
Phenomena:N/A
Clouds:N/A
Expected CloudBase > 1,200 ft AGL from Temp-Dew spread
CeilingNone
Temp18°C (ISA +5)
Dew Point15°C (83% RH)
QNH1003 hPa
Density Alt1,913 ft
Elevation804 ft
Report Wrong Elevation
Raw Report
UNAA 230200Z 36002MPS 7000 NSC 18/15 Q1003 R02/090065 NOSIG RMK
QFE730=

Extra information for UNAA:More info

Metar Taf Metar & Taf Last 4 Metars F.Rules Stats Wind Profile Meteogram Temp Stats Airport Information Weather charts Add Link Nearby VenuesMetar ALERT Operation Metar Decoded Social comments